Airfield :
LOGIN :

Register | Disclaimer

   EN    FR    IT 

 










Legend :    VFR   Marginal VFR   IFR   Intensive IFR   Very Intensive IFR
Visi :
Ceiling :
>= 8 km
>= 3000ft
5 to 8 km
1000 to 3000 ft
1500m to 5 km
500 to 1000 ft
800 to 1500m
200 to 500 ft
< 800m
< 200 ft
Symbols :   Thunderstorms  Fog  Heavy snow  Heavy precipitations  Wind > 20 kt
SIGMETs :     Misc.  Thunderstorms  Icing  Turbulence  Mountain Waves  Volcanic Ashes






- Airport Elevation : 157 ft
- IATA code : LIL


LFQQ - Lille Lesquin

CURRENT METAR :
  • 230600Z AUTO 17007KT CAVOK 16/13 Q1005 TEMPO BKN013

EXPIRED METARs :
  • 230530Z AUTO 18009KT 9000 NSC 16/13 Q1005 BECMG BKN012
  • 230500Z AUTO 17006KT 9000 NSC 16/13 Q1005 BECMG BKN012
  • 230430Z AUTO 16006KT 9000 FEW045 OVC074 16/14 Q1005 BECMG BKN012
  • 230400Z AUTO 17004KT 9000 FEW030 BKN035 BKN048 16/14 Q1005 TEMPO BKN007
  • 230330Z AUTO 17004KT 9000 FEW031 BKN062 OVC078 15/13 Q1006 TEMPO BKN007

TAF TAF LFQQ
Valid from the 23 at 06:00 until the 24 at 12:00 UTC


230500Z 2306/2412 19010KT 9999 BKN030
TEMPO 2307/2309 BKN013
TEMPO 2314/2322 4000 SHRA BKN030TCU
PROB40
TEMPO 2314/2322 19020G35KT 2000 TSRA BKN030CB
FM232200 27015G25KT 9999 SCT030
BECMG 2322/2324 27013KT
BECMG 2402/2405 19013KT
ATIS : +33 3 20 16 19 54



MET'MAP, your aeronautical weather chart ! - Copyright ORBIFLY December 2007 - Disclaimer

ORBIFLY MET'MAP TEAM :

Programming & Development : Alexandra Zaïnal
Concept & original design : Baudouin d'Aumeries
Assistance for programming : Marc-Olivier Méhu
Technical & hardware support : Manuel Goepfert

Contact : metmap@orbifly.com




SOURCES & CREDITS :

   NOAA